Time;durP1;ratioP1;P1;durP2;ratioP2;P2;SDS_P1;SDS_P2;PMS_P1;PMS_P2;Temp;Humidity;BMP_temperature;BMP_pressure;BME280_temperature;BME280_humidity;BME280_pressure;Samples;Min_cycle;Max_cycle;Signal;HPM_P1;HPM_P2
2022/10/05 00:02:17;;;;;;;4.30;3.77;;;12.20;99.90;;;;;;4954845;28;20847;-63
2022/10/05 00:04:44;;;;;;;4.33;3.70;;;12.20;99.90;;;;;;4954953;29;20935;-63
2022/10/05 00:07:15;;;;;;;4.23;3.40;;;12.20;99.90;;;;;;4955088;29;20532;-63
2022/10/05 00:09:42;;;;;;;6.53;3.33;;;12.10;99.90;;;;;;4955416;29;20449;-63
2022/10/05 00:12:15;;;;;;;5.67;4.27;;;12.10;99.90;;;;;;4955117;28;20476;-63
2022/10/05 00:14:43;;;;;;;7.23;3.70;;;12.10;99.90;;;;;;4956106;29;20495;-63
2022/10/05 00:17:16;;;;;;;3.63;3.33;;;12.10;99.90;;;;;;4958740;29;20452;-63
2022/10/05 00:19:45;;;;;;;4.80;3.13;;;12.10;99.90;;;;;;4957699;29;20796;-63
2022/10/05 00:22:17;;;;;;;4.70;4.20;;;12.10;99.90;;;;;;4957850;28;20479;-64
2022/10/05 00:24:44;;;;;;;4.77;4.27;;;12.10;99.90;;;;;;4958164;28;20437;-63
2022/10/05 00:27:16;;;;;;;5.17;3.80;;;12.20;99.90;;;;;;4961066;29;20452;-63
2022/10/05 00:29:43;;;;;;;5.93;4.50;;;12.20;99.90;;;;;;4960529;29;20449;-63
2022/10/05 00:32:10;;;;;;;6.10;3.10;;;12.30;99.90;;;;;;4960238;28;20863;-63
2022/10/05 00:34:39;;;;;;;5.43;3.63;;;12.20;99.90;;;;;;4958936;29;20472;-63
2022/10/05 00:37:06;;;;;;;3.83;3.43;;;12.30;99.90;;;;;;4958989;29;20449;-63
2022/10/05 00:39:35;;;;;;;4.47;3.40;;;12.30;99.90;;;;;;4958729;29;20451;-63
2022/10/05 00:42:22;;;;;;;3.87;3.53;;;12.30;99.90;;;;;;4958662;28;20473;-63
2022/10/05 00:44:56;;;;;;;4.40;4.00;;;12.30;99.90;;;;;;4958643;29;20459;-63
2022/10/05 00:47:45;;;;;;;4.43;3.43;;;12.30;99.90;;;;;;4958560;29;20447;-63
2022/10/05 00:50:36;;;;;;;7.40;4.47;;;12.40;99.90;;;;;;4958701;29;20437;-63
2022/10/05 00:53:15;;;;;;;5.47;3.80;;;12.30;99.90;;;;;;4958359;28;20487;-63
2022/10/05 00:55:54;;;;;;;7.57;4.70;;;12.30;99.90;;;;;;4958041;29;21022;-63
2022/10/05 00:58:30;;;;;;;5.90;3.60;;;12.30;99.90;;;;;;4958570;29;20443;-63
2022/10/05 01:01:05;;;;;;;6.73;3.77;;;12.30;99.90;;;;;;4957831;29;20902;-63
2022/10/05 01:03:44;;;;;;;4.97;3.93;;;12.30;99.90;;;;;;4958420;28;20800;-63
2022/10/05 01:06:22;;;;;;;6.10;4.10;;;12.30;99.90;;;;;;4958263;29;20913;-63
2022/10/05 01:08:57;;;;;;;7.37;4.10;;;12.30;99.90;;;;;;4958386;29;20795;-63
2022/10/05 01:11:29;;;;;;;7.07;4.60;;;12.20;99.90;;;;;;4958260;29;20432;-63
2022/10/05 01:14:02;;;;;;;4.97;3.40;;;12.20;99.90;;;;;;4958182;29;20433;-63
2022/10/05 01:16:34;;;;;;;8.77;4.17;;;12.10;99.90;;;;;;4958082;29;20874;-63
2022/10/05 01:19:21;;;;;;;8.30;3.70;;;12.10;99.90;;;;;;4957636;29;20436;-63
2022/10/05 01:21:57;;;;;;;5.40;3.50;;;12.10;99.90;;;;;;4957758;28;20448;-63
2022/10/05 01:24:51;;;;;;;3.87;3.23;;;12.10;99.90;;;;;;4957602;29;20905;-63
2022/10/05 01:27:48;;;;;;;4.57;4.17;;;12.10;99.90;;;;;;4957892;29;20436;-62
2022/10/05 01:30:17;;;;;;;4.90;3.23;;;12.10;99.90;;;;;;4957905;29;20429;-63
2022/10/05 01:32:50;;;;;;;5.80;4.17;;;12.10;99.90;;;;;;4957439;28;20484;-63
2022/10/05 01:35:32;;;;;;;5.00;4.20;;;12.10;99.90;;;;;;4958189;29;20465;-62
2022/10/05 01:38:08;;;;;;;4.10;3.70;;;12.10;99.90;;;;;;4957199;28;20804;-62
2022/10/05 01:40:44;;;;;;;5.60;4.10;;;12.20;99.90;;;;;;4957591;29;20917;-63
2022/10/05 01:43:23;;;;;;;4.87;3.70;;;12.30;99.90;;;;;;4957228;28;20461;-63
2022/10/05 01:46:00;;;;;;;4.23;3.93;;;12.40;99.90;;;;;;4957522;29;20459;-63
2022/10/05 01:48:37;;;;;;;6.60;4.40;;;12.40;99.90;;;;;;4957569;29;20428;-63
2022/10/05 01:51:10;;;;;;;7.13;4.10;;;12.50;99.90;;;;;;4957377;29;20436;-63
2022/10/05 01:53:48;;;;;;;4.80;3.77;;;12.50;99.90;;;;;;4957062;28;20473;-64
2022/10/05 01:56:21;;;;;;;4.60;4.03;;;12.50;99.90;;;;;;4957406;29;20469;-63
2022/10/05 01:58:59;;;;;;;5.10;3.83;;;12.50;99.90;;;;;;4957449;29;20437;-63
2022/10/05 02:01:32;;;;;;;4.30;3.90;;;12.50;99.90;;;;;;4957501;29;20456;-63
2022/10/05 02:04:06;;;;;;;4.93;4.43;;;12.50;99.90;;;;;;4957336;29;20444;-63
2022/10/05 02:06:37;;;;;;;5.67;3.83;;;12.50;99.90;;;;;;4957088;29;20440;-63
2022/10/05 02:09:11;;;;;;;4.43;4.00;;;12.60;99.90;;;;;;4957187;29;20445;-63
2022/10/05 02:11:39;;;;;;;5.07;4.10;;;12.60;99.90;;;;;;4956865;28;20812;-63
2022/10/05 02:14:11;;;;;;;7.30;4.20;;;12.50;99.90;;;;;;4956740;29;20453;-63
2022/10/05 02:16:40;;;;;;;4.20;3.60;;;12.60;99.90;;;;;;4956968;29;20476;-62
2022/10/05 02:19:14;;;;;;;6.10;4.67;;;12.50;99.90;;;;;;4956591;29;20449;-62
2022/10/05 02:21:44;;;;;;;5.70;4.83;;;12.50;99.90;;;;;;4956968;28;20608;-63
2022/10/05 02:24:17;;;;;;;8.83;4.53;;;12.50;99.90;;;;;;4958087;29;20471;-62
2022/10/05 02:26:45;;;;;;;5.33;4.17;;;12.40;99.90;;;;;;4957142;29;20444;-63
2022/10/05 02:29:15;;;;;;;5.23;4.37;;;12.30;99.90;;;;;;4956920;29;20476;-63
2022/10/05 02:31:47;;;;;;;5.37;4.87;;;12.30;99.90;;;;;;4956332;28;20452;-63
2022/10/05 02:34:22;;;;;;;5.33;3.77;;;12.20;99.90;;;;;;4956667;29;20439;-63
2022/10/05 02:36:55;;;;;;;6.80;3.63;;;12.20;99.90;;;;;;4956588;29;20480;-63
2022/10/05 02:39:31;;;;;;;5.43;4.47;;;12.20;99.90;;;;;;4956593;29;20442;-63
2022/10/05 02:42:07;;;;;;;4.13;3.70;;;12.20;99.90;;;;;;4956513;28;20479;-63
2022/10/05 02:44:42;;;;;;;7.70;4.63;;;12.20;99.90;;;;;;4956590;29;20439;-64
2022/10/05 02:47:14;;;;;;;5.50;4.00;;;12.20;99.90;;;;;;4956349;29;20440;-63
2022/10/05 02:49:49;;;;;;;6.30;4.57;;;12.10;99.90;;;;;;4955481;28;20437;-63
2022/10/05 02:52:21;;;;;;;4.40;3.90;;;12.20;99.90;;;;;;4955927;28;20843;-63
2022/10/05 02:54:53;;;;;;;5.80;4.50;;;12.20;99.90;;;;;;4956232;29;20451;-63
2022/10/05 02:57:28;;;;;;;5.00;4.50;;;12.10;99.90;;;;;;4956219;29;20438;-63
2022/10/05 03:00:02;;;;;;;6.13;4.67;;;12.10;99.90;;;;;;4956733;29;20435;-63
2022/10/05 03:02:35;;;;;;;4.90;4.40;;;12.10;99.90;;;;;;4955801;28;20834;-63
2022/10/05 03:05:10;;;;;;;10.00;4.60;;;12.10;99.90;;;;;;4956192;29;20429;-63
2022/10/05 03:07:45;;;;;;;4.70;4.23;;;12.00;99.90;;;;;;4956180;29;20433;-63
2022/10/05 03:10:18;;;;;;;4.53;3.93;;;12.00;99.90;;;;;;4956035;29;20447;-63
2022/10/05 03:12:53;;;;;;;7.50;5.03;;;12.00;99.90;;;;;;4955722;28;20468;-63
2022/10/05 03:15:44;;;;;;;5.17;4.20;;;12.00;99.90;;;;;;4955914;29;20475;-63
2022/10/05 03:18:19;;;;;;;7.17;4.40;;;11.90;99.90;;;;;;4955951;29;20444;-63
2022/10/05 03:20:54;;;;;;;6.30;5.23;;;11.90;99.90;;;;;;4955825;29;20437;-63
2022/10/05 03:23:31;;;;;;;5.77;4.70;;;11.80;99.90;;;;;;4955407;28;21000;-63
2022/10/05 03:26:22;;;;;;;9.40;4.70;;;11.80;99.90;;;;;;4955819;29;20432;-63
2022/10/05 03:28:58;;;;;;;7.33;5.23;;;11.80;99.90;;;;;;4955813;29;20433;-63
2022/10/05 03:31:35;;;;;;;6.00;4.87;;;11.80;99.90;;;;;;4955642;29;20460;-63
2022/10/05 03:34:10;;;;;;;4.73;4.23;;;11.80;99.90;;;;;;4956913;29;20432;-63
2022/10/05 03:36:44;;;;;;;5.40;4.73;;;11.80;99.90;;;;;;4955471;29;20531;-63
2022/10/05 03:39:18;;;;;;;7.87;4.60;;;11.80;99.90;;;;;;4955538;29;20436;-63
2022/10/05 03:41:51;;;;;;;4.83;4.40;;;11.80;99.90;;;;;;4955395;28;20428;-63
2022/10/05 03:44:35;;;;;;;6.53;4.57;;;11.80;99.90;;;;;;4955520;29;20496;-62
2022/10/05 03:47:25;;;;;;;8.10;5.23;;;11.80;99.90;;;;;;4955535;29;20785;-64
2022/10/05 03:50:06;;;;;;;5.90;4.97;;;11.80;99.90;;;;;;4955254;29;20456;-62
2022/10/05 03:52:38;;;;;;;7.87;5.30;;;11.80;99.90;;;;;;4955418;28;20472;-63
2022/10/05 03:55:14;;;;;;;6.80;5.50;;;11.80;99.90;;;;;;4955772;29;20433;-63
2022/10/05 03:57:44;;;;;;;5.80;5.23;;;11.80;99.90;;;;;;4955057;29;20936;-62
2022/10/05 04:00:15;;;;;;;5.60;4.63;;;11.80;99.90;;;;;;4954511;28;20457;-61
2022/10/05 04:02:49;;;;;;;6.07;4.40;;;11.80;99.90;;;;;;4955003;28;20475;-63
2022/10/05 04:05:20;;;;;;;9.33;5.30;;;11.80;99.90;;;;;;4955575;29;20448;-63
2022/10/05 04:10:26;;;;;;;8.03;5.50;;;11.80;99.90;;;;;;5133262;27;20546;-63
2022/10/05 04:12:58;;;;;;;5.83;5.23;;;11.80;99.90;;;;;;5143052;27;20472;-63
2022/10/05 04:15:31;;;;;;;5.77;4.43;;;11.70;99.90;;;;;;5143069;28;20425;-62
2022/10/05 04:18:03;;;;;;;5.90;4.50;;;11.70;99.90;;;;;;5139320;28;20424;-63
2022/10/05 04:20:38;;;;;;;7.10;5.57;;;11.70;99.90;;;;;;5138050;27;20425;-63
2022/10/05 04:23:14;;;;;;;8.37;5.60;;;11.70;99.90;;;;;;5132540;27;20986;-63
2022/10/05 04:25:47;;;;;;;7.17;4.77;;;11.70;99.90;;;;;;5132445;27;20424;-64
2022/10/05 04:28:22;;;;;;;6.43;5.00;;;11.70;99.90;;;;;;5131789;28;20425;-63
2022/10/05 04:30:52;;;;;;;5.20;4.50;;;11.80;99.90;;;;;;5131896;28;20429;-63
2022/10/05 04:33:20;;;;;;;6.10;5.50;;;11.80;99.90;;;;;;5131298;27;20449;-63
2022/10/05 04:36:09;;;;;;;7.57;5.33;;;11.80;99.90;;;;;;5131513;28;20449;-64
2022/10/05 04:38:48;;;;;;;5.30;4.80;;;11.80;99.90;;;;;;5131710;28;20436;-64
2022/10/05 04:41:30;;;;;;;11.43;5.30;;;11.80;99.90;;;;;;5131682;28;20791;-63
2022/10/05 04:44:13;;;;;;;6.50;5.30;;;11.80;99.90;;;;;;5131161;27;20433;-62
2022/10/05 04:46:57;;;;;;;6.20;5.30;;;11.80;99.90;;;;;;5131447;28;20425;-63
2022/10/05 04:49:35;;;;;;;7.10;6.40;;;11.70;99.90;;;;;;5131448;28;20464;-63
2022/10/05 04:52:13;;;;;;;8.10;5.27;;;11.70;99.90;;;;;;5131717;27;20494;-63
2022/10/05 04:54:51;;;;;;;7.83;5.50;;;11.70;99.90;;;;;;5131572;28;20437;-64
2022/10/05 04:57:24;;;;;;;9.80;5.77;;;11.60;99.90;;;;;;5131351;27;20428;-63
2022/10/05 05:00:13;;;;;;;10.17;5.37;;;11.60;99.90;;;;;;5131359;28;20421;-63
2022/10/05 05:02:55;;;;;;;7.37;6.60;;;11.60;99.90;;;;;;5130999;27;20488;-62
2022/10/05 05:05:30;;;;;;;9.57;5.67;;;11.50;99.90;;;;;;5130512;28;20789;-63
2022/10/05 05:08:10;;;;;;;10.33;6.60;;;11.50;99.90;;;;;;5131095;28;20520;-64
2022/10/05 05:10:58;;;;;;;6.97;5.27;;;11.40;99.90;;;;;;5130850;28;20790;-63
2022/10/05 05:13:46;;;;;;;7.10;5.50;;;11.40;99.90;;;;;;5130473;27;20461;-63
2022/10/05 05:16:25;;;;;;;8.63;6.30;;;11.30;99.90;;;;;;5130577;28;20421;-61
2022/10/05 05:19:09;;;;;;;9.63;6.03;;;11.30;99.90;;;;;;5130894;28;20417;-63
2022/10/05 05:21:43;;;;;;;5.90;5.10;;;11.30;99.90;;;;;;5117392;28;20428;-61
2022/10/05 05:24:16;;;;;;;6.50;5.83;;;11.30;99.90;;;;;;5116861;28;20913;-62
2022/10/05 05:26:58;;;;;;;8.23;5.87;;;11.20;99.90;;;;;;5116915;28;20437;-62
2022/10/05 05:29:37;;;;;;;11.90;6.93;;;11.20;99.90;;;;;;5116656;28;20461;-64
2022/10/05 05:32:11;;;;;;;10.40;6.80;;;11.20;99.90;;;;;;5116915;28;20473;-63
2022/10/05 05:34:48;;;;;;;6.53;5.93;;;11.20;99.90;;;;;;5117030;28;20436;-63
2022/10/05 05:37:26;;;;;;;10.87;7.00;;;11.20;99.90;;;;;;5116803;28;20430;-64
2022/10/05 05:40:03;;;;;;;7.07;6.20;;;11.20;99.90;;;;;;5116906;28;20440;-64
2022/10/05 05:42:39;;;;;;;6.47;5.70;;;11.20;99.90;;;;;;5116576;28;20465;-63
2022/10/05 05:45:16;;;;;;;10.27;6.63;;;11.20;99.90;;;;;;5116102;28;20931;-64
2022/10/05 05:47:50;;;;;;;7.20;6.47;;;11.20;99.90;;;;;;5116510;28;20422;-62
2022/10/05 05:50:33;;;;;;;10.30;6.83;;;11.20;99.90;;;;;;5119972;28;20463;-63
2022/10/05 05:53:06;;;;;;;13.43;6.43;;;11.30;99.90;;;;;;5125518;28;20464;-63
2022/10/05 05:55:35;;;;;;;8.20;6.30;;;11.30;99.90;;;;;;5122479;28;20430;-63
2022/10/05 05:58:09;;;;;;;8.10;6.33;;;11.40;99.90;;;;;;5124712;28;20445;-62
2022/10/05 06:00:42;;;;;;;7.90;6.40;;;11.40;99.90;;;;;;5118107;28;20429;-64
2022/10/05 06:03:14;;;;;;;7.57;6.23;;;11.50;99.90;;;;;;5117614;28;20461;-64
2022/10/05 06:05:44;;;;;;;7.63;6.17;;;11.50;99.90;;;;;;5115828;28;20437;-64
2022/10/05 06:08:18;;;;;;;8.83;6.40;;;11.50;99.90;;;;;;5116121;28;20425;-63
2022/10/05 06:10:49;;;;;;;7.23;5.47;;;11.60;99.90;;;;;;5114889;28;20461;-64
2022/10/05 06:13:21;;;;;;;6.83;5.43;;;11.70;99.90;;;;;;5115343;28;21011;-63
2022/10/05 06:15:53;;;;;;;7.80;6.30;;;11.70;99.90;;;;;;5114338;28;20421;-64
2022/10/05 06:18:21;;;;;;;8.77;7.03;;;11.80;99.90;;;;;;5115620;28;20433;-64
2022/10/05 06:20:54;;;;;;;7.60;6.50;;;11.80;99.90;;;;;;5115847;28;20430;-63
2022/10/05 06:23:27;;;;;;;7.93;6.10;;;11.90;99.90;;;;;;5115471;28;20460;-63
2022/10/05 06:26:09;;;;;;;8.40;6.07;;;11.90;99.90;;;;;;5116022;28;20440;-63
2022/10/05 06:28:36;;;;;;;9.23;6.57;;;12.00;99.90;;;;;;5115182;28;20784;-63
2022/10/05 06:31:16;;;;;;;6.90;6.20;;;12.10;99.90;;;;;;5115380;28;20453;-63
2022/10/05 06:33:47;;;;;;;6.97;5.77;;;12.10;99.90;;;;;;5114487;28;20819;-63
2022/10/05 06:36:31;;;;;;;6.93;6.23;;;12.20;99.90;;;;;;5114706;28;20822;-62
2022/10/05 06:39:23;;;;;;;8.80;6.30;;;12.20;99.90;;;;;;5115295;28;20510;-63
2022/10/05 06:42:05;;;;;;;8.40;7.00;;;12.20;99.90;;;;;;5114985;28;20455;-63
2022/10/05 06:44:42;;;;;;;12.70;6.47;;;12.20;99.90;;;;;;5116431;28;20429;-64
2022/10/05 06:47:21;;;;;;;7.43;6.13;;;12.30;99.90;;;;;;5115813;28;20425;-64
2022/10/05 06:49:56;;;;;;;9.20;5.20;;;12.40;99.90;;;;;;5116030;28;20463;-64
2022/10/05 06:52:29;;;;;;;8.30;6.40;;;12.50;99.90;;;;;;5116075;28;20839;-62
2022/10/05 06:55:11;;;;;;;8.50;5.60;;;12.60;99.90;;;;;;5116726;28;20422;-63
2022/10/05 06:58:00;;;;;;;6.77;5.10;;;12.70;99.90;;;;;;5116025;28;20536;-63
2022/10/05 07:00:34;;;;;;;7.37;6.07;;;12.90;99.90;;;;;;5116458;28;20426;-63
2022/10/05 07:03:11;;;;;;;6.20;5.53;;;13.10;99.90;;;;;;5115986;28;20466;-63
2022/10/05 07:05:52;;;;;;;9.20;6.00;;;13.20;99.90;;;;;;5122317;28;20428;-63
2022/10/05 07:08:28;;;;;;;6.20;5.43;;;13.40;99.90;;;;;;5119580;28;20457;-63
2022/10/05 07:11:10;;;;;;;7.00;4.93;;;13.50;99.90;;;;;;5116950;28;20468;-61
2022/10/05 07:14:02;;;;;;;7.80;5.80;;;13.70;99.90;;;;;;5116689;28;20548;-62
2022/10/05 07:16:38;;;;;;;6.57;5.30;;;13.90;99.90;;;;;;5116639;28;20439;-63
2022/10/05 07:19:32;;;;;;;6.17;5.37;;;14.00;99.90;;;;;;5118509;28;20857;-63
2022/10/05 07:22:22;;;;;;;8.87;5.60;;;14.20;99.90;;;;;;5113654;28;20565;-64
2022/10/05 07:24:57;;;;;;;7.30;4.80;;;14.30;99.90;;;;;;5115525;28;20923;-64
2022/10/05 07:27:27;;;;;;;6.00;5.40;;;14.60;99.90;;;;;;5114912;28;20436;-64
2022/10/05 07:30:01;;;;;;;7.33;4.90;;;14.70;99.90;;;;;;5116684;28;20465;-64
2022/10/05 07:32:35;;;;;;;8.00;5.03;;;14.70;99.90;;;;;;5116202;28;20477;-64
2022/10/05 07:37:53;;;;;;;7.03;5.30;;;14.80;99.90;;;;;;5116616;28;20508;-62
2022/10/05 07:38:07;;;;;;;11.30;5.50;;;14.70;99.90;;;;;;5121324;28;20427;-63
2022/10/05 07:40:40;;;;;;;7.77;5.33;;;14.80;99.90;;;;;;5118141;28;20487;-63
2022/10/05 07:43:18;;;;;;;9.70;5.90;;;14.80;99.90;;;;;;5114157;28;20469;-63
2022/10/05 07:45:51;;;;;;;6.23;5.43;;;14.80;99.90;;;;;;5114163;27;20973;-63
2022/10/05 07:48:21;;;;;;;6.67;5.97;;;14.80;99.90;;;;;;5114470;28;20426;-63
2022/10/05 07:50:58;;;;;;;7.27;5.93;;;14.80;99.90;;;;;;5114235;28;20478;-63
2022/10/05 07:53:30;;;;;;;8.77;5.97;;;14.80;99.90;;;;;;5114938;28;20461;-62
2022/10/05 07:56:03;;;;;;;8.77;5.80;;;14.80;99.90;;;;;;5114702;28;20434;-65
2022/10/05 07:58:40;;;;;;;6.90;5.93;;;14.80;99.90;;;;;;5113957;28;20909;-64
2022/10/05 08:01:11;;;;;;;8.10;6.00;;;14.90;99.90;;;;;;5114819;28;20429;-65
2022/10/05 08:03:52;;;;;;;7.30;6.40;;;14.80;99.90;;;;;;5114138;28;20982;-63
2022/10/05 08:06:47;;;;;;;8.23;6.57;;;14.70;99.90;;;;;;5114343;28;20449;-63
2022/10/05 08:09:32;;;;;;;8.90;6.60;;;14.70;99.90;;;;;;5101302;28;20505;-63
2022/10/05 08:12:07;;;;;;;7.83;5.60;;;14.70;99.90;;;;;;5114138;28;20469;-64
2022/10/05 08:14:43;;;;;;;6.50;5.90;;;14.70;99.90;;;;;;5115355;28;20436;-63
2022/10/05 08:17:18;;;;;;;10.03;6.07;;;14.80;99.90;;;;;;5116578;28;20485;-63
2022/10/05 08:19:50;;;;;;;6.93;6.10;;;14.80;99.90;;;;;;5115843;28;20429;-62
2022/10/05 08:22:25;;;;;;;7.97;5.50;;;15.00;99.90;;;;;;5115728;28;20991;-63
2022/10/05 08:24:59;;;;;;;7.40;5.50;;;15.10;99.90;;;;;;5116509;28;20455;-64
2022/10/05 08:27:35;;;;;;;6.40;5.50;;;15.40;99.90;;;;;;5114434;28;20432;-63
2022/10/05 08:30:06;;;;;;;7.60;5.50;;;15.60;99.90;;;;;;5115691;28;20472;-63
2022/10/05 08:32:39;;;;;;;11.53;6.30;;;15.80;99.90;;;;;;5115071;28;20467;-63
2022/10/05 08:35:24;;;;;;;11.73;6.17;;;16.10;99.90;;;;;;5114301;28;20433;-63
2022/10/05 08:37:53;;;;;;;10.47;5.80;;;16.30;99.90;;;;;;5113496;28;20426;-62
2022/10/05 08:40:47;;;;;;;5.93;5.17;;;16.50;99.90;;;;;;5114339;28;20445;-63
2022/10/05 08:43:39;;;;;;;7.97;5.97;;;16.60;99.90;;;;;;5111682;28;21000;-63
2022/10/05 08:46:30;;;;;;;7.53;5.33;;;16.80;99.90;;;;;;5113540;28;20850;-63
2022/10/05 08:49:34;;;;;;;6.30;5.70;;;16.80;99.90;;;;;;5114153;28;20441;-63
2022/10/05 08:52:20;;;;;;;7.00;5.43;;;16.70;99.90;;;;;;5113817;28;20963;-63
2022/10/05 08:55:17;;;;;;;7.07;5.67;;;16.90;99.90;;;;;;5113789;28;20425;-62
2022/10/05 08:58:04;;;;;;;5.87;5.23;;;17.00;99.90;;;;;;5112526;28;20445;-62
2022/10/05 09:00:41;;;;;;;8.20;5.03;;;17.10;99.90;;;;;;5117397;28;20544;-64
2022/10/05 09:03:36;;;;;;;8.70;6.07;;;17.20;99.50;;;;;;5117362;28;20960;-62
2022/10/05 09:06:23;;;;;;;8.37;5.00;;;17.30;99.10;;;;;;5117082;28;20429;-63
2022/10/05 09:09:14;;;;;;;6.60;4.47;;;17.40;98.50;;;;;;5118194;28;20460;-63
2022/10/05 09:11:55;;;;;;;5.80;5.20;;;17.40;98.10;;;;;;5117184;28;20464;-63
2022/10/05 09:14:30;;;;;;;7.27;5.07;;;17.50;97.60;;;;;;5117370;28;20425;-62
2022/10/05 09:17:10;;;;;;;7.43;5.50;;;17.40;97.10;;;;;;5117661;28;20432;-64
2022/10/05 09:19:52;;;;;;;8.43;4.30;;;17.50;97.00;;;;;;5118259;28;20421;-63
2022/10/05 09:22:36;;;;;;;5.80;4.83;;;17.50;96.50;;;;;;5117734;28;21003;-64
2022/10/05 09:25:16;;;;;;;6.30;4.40;;;17.50;96.30;;;;;;5115795;28;20826;-62
2022/10/05 09:27:52;;;;;;;7.70;5.00;;;17.50;96.10;;;;;;5116606;28;20443;-62
2022/10/05 09:30:34;;;;;;;12.20;4.63;;;17.60;95.90;;;;;;5116859;28;20461;-62
2022/10/05 09:33:31;;;;;;;7.10;4.37;;;17.60;95.60;;;;;;5116814;28;20469;-63
2022/10/05 09:36:24;;;;;;;4.80;4.13;;;17.60;95.20;;;;;;5116410;28;20450;-63
2022/10/05 09:39:20;;;;;;;4.90;4.43;;;17.70;95.10;;;;;;5116610;28;20735;-62
2022/10/05 09:42:33;;;;;;;6.87;5.23;;;17.70;94.90;;;;;;5116936;28;20428;-64
2022/10/05 09:45:32;;;;;;;5.97;4.60;;;17.70;94.60;;;;;;5080187;28;20453;-63
2022/10/05 09:48:24;;;;;;;4.23;3.83;;;17.70;94.30;;;;;;5104516;28;20960;-62
2022/10/05 09:51:46;;;;;;;5.57;4.40;;;17.70;94.20;;;;;;5116594;28;20468;-63
2022/10/05 09:55:00;;;;;;;12.23;5.83;;;17.80;94.00;;;;;;5116755;28;20437;-63
2022/10/05 09:57:55;;;;;;;5.57;4.93;;;18.00;93.70;;;;;;5116326;28;20483;-63
2022/10/05 10:00:39;;;;;;;4.87;4.37;;;18.10;93.20;;;;;;5116630;28;20449;-62
2022/10/05 10:03:57;;;;;;;6.67;4.67;;;18.10;93.10;;;;;;5115710;28;20457;-63
2022/10/05 10:06:51;;;;;;;4.10;3.70;;;18.10;93.40;;;;;;5116918;28;20421;-64
2022/10/05 10:09:30;;;;;;;5.97;4.17;;;18.00;92.80;;;;;;5115043;28;20477;-64
2022/10/05 10:12:20;;;;;;;4.23;3.70;;;17.90;92.60;;;;;;5115876;28;20831;-63
2022/10/05 10:15:19;;;;;;;5.53;3.70;;;17.90;92.60;;;;;;5115670;28;20431;-63
2022/10/05 10:18:05;;;;;;;4.23;3.83;;;17.80;92.50;;;;;;5112406;28;20502;-63
2022/10/05 10:20:50;;;;;;;5.50;4.13;;;17.90;92.30;;;;;;5117528;28;20781;-63
2022/10/05 10:23:34;;;;;;;4.77;4.37;;;17.80;92.00;;;;;;5117074;28;20468;-62
2022/10/05 10:26:36;;;;;;;4.40;3.60;;;17.80;92.00;;;;;;5116547;28;20417;-62
2022/10/05 10:29:33;;;;;;;4.13;3.73;;;17.70;91.70;;;;;;5117792;28;20509;-63
2022/10/05 10:32:14;;;;;;;3.70;3.40;;;17.60;91.50;;;;;;5117044;28;20485;-62
2022/10/05 10:35:05;;;;;;;7.60;4.23;;;17.60;91.50;;;;;;5119005;28;20430;-63
2022/10/05 10:37:40;;;;;;;7.90;4.23;;;17.60;91.40;;;;;;5121333;28;20425;-61
2022/10/05 10:40:25;;;;;;;4.23;3.73;;;17.60;91.40;;;;;;5127515;28;20417;-63
2022/10/05 10:43:11;;;;;;;4.40;3.40;;;17.50;91.30;;;;;;5120614;28;20457;-63
2022/10/05 10:45:48;;;;;;;4.23;3.83;;;17.50;91.40;;;;;;5124571;28;20480;-64
2022/10/05 10:48:57;;;;;;;4.93;4.50;;;17.40;91.50;;;;;;5127088;28;20422;-63
2022/10/05 10:51:58;;;;;;;4.80;3.70;;;17.40;91.60;;;;;;5119068;28;20520;-60
2022/10/05 10:55:03;;;;;;;4.03;3.63;;;17.40;91.70;;;;;;5118265;28;20421;-63
2022/10/05 10:57:51;;;;;;;5.23;4.23;;;17.40;91.60;;;;;;5083167;28;20952;-62
2022/10/05 11:00:47;;;;;;;4.53;3.90;;;17.40;91.60;;;;;;5120068;28;20421;-62
2022/10/05 11:03:49;;;;;;;6.30;4.17;;;17.50;91.60;;;;;;5118197;28;20461;-62
2022/10/05 11:06:28;;;;;;;4.33;3.93;;;17.60;91.40;;;;;;5116132;28;20425;-61
2022/10/05 11:09:31;;;;;;;5.60;4.60;;;17.70;91.10;;;;;;5117574;28;20824;-63
2022/10/05 11:12:36;;;;;;;3.60;3.30;;;17.90;90.80;;;;;;5106249;28;20530;-63
2022/10/05 11:15:31;;;;;;;4.20;3.80;;;18.00;90.40;;;;;;5082140;28;20441;-62
2022/10/05 11:18:18;;;;;;;5.30;3.40;;;18.20;90.30;;;;;;5111870;28;20453;-63
2022/10/05 11:21:18;;;;;;;4.63;3.40;;;18.30;89.60;;;;;;5124415;28;20487;-64
2022/10/05 11:24:37;;;;;;;3.87;3.10;;;18.30;88.80;;;;;;5128546;28;20449;-63
2022/10/05 11:27:32;;;;;;;3.47;3.10;;;18.40;88.30;;;;;;5066153;28;20505;-63
2022/10/05 11:30:13;;;;;;;3.90;3.03;;;18.50;87.70;;;;;;5125619;28;20434;-63
2022/10/05 11:33:10;;;;;;;4.00;3.30;;;18.50;86.90;;;;;;5126147;28;20454;-63
2022/10/05 11:36:03;;;;;;;4.00;3.00;;;18.50;86.40;;;;;;5124934;28;20429;-62
2022/10/05 11:38:55;;;;;;;4.60;3.20;;;18.70;85.90;;;;;;5124793;28;20424;-62
2022/10/05 11:42:00;;;;;;;3.43;3.10;;;18.70;84.80;;;;;;5122857;28;20414;-64
2022/10/05 11:45:00;;;;;;;3.93;3.37;;;18.80;84.50;;;;;;5085912;28;20771;-63
2022/10/05 11:47:31;;;;;;;4.60;3.03;;;18.90;84.00;;;;;;5117397;28;20421;-63
2022/10/05 11:50:05;;;;;;;3.63;3.33;;;19.00;83.40;;;;;;5115945;28;20509;-63
2022/10/05 11:52:40;;;;;;;3.83;3.53;;;19.10;82.80;;;;;;5115530;28;20488;-63
2022/10/05 11:55:23;;;;;;;3.57;3.23;;;19.30;82.10;;;;;;5116821;28;20433;-62
2022/10/05 11:57:55;;;;;;;3.57;3.27;;;19.40;80.70;;;;;;5114848;28;20429;-63
2022/10/05 12:00:24;;;;;;;3.30;3.00;;;19.40;80.00;;;;;;5114369;28;20437;-62
2022/10/05 12:03:26;;;;;;;5.60;3.07;;;19.50;79.40;;;;;;5114539;28;20477;-63
2022/10/05 12:06:06;;;;;;;3.30;3.00;;;19.50;78.80;;;;;;5114515;28;20442;-63
2022/10/05 12:08:42;;;;;;;4.00;3.30;;;19.60;78.30;;;;;;5115771;28;20467;-63
2022/10/05 12:11:17;;;;;;;6.00;3.33;;;19.60;77.60;;;;;;5116783;28;20469;-62
2022/10/05 12:13:52;;;;;;;3.50;3.20;;;19.60;77.10;;;;;;5115484;28;20468;-67
2022/10/05 12:16:23;;;;;;;3.63;3.33;;;19.50;76.90;;;;;;5116806;28;20515;-63
2022/10/05 12:19:00;;;;;;;3.50;2.97;;;19.50;77.00;;;;;;5118921;28;20426;-64
2022/10/05 12:21:36;;;;;;;3.80;3.40;;;19.60;76.90;;;;;;5120175;28;20770;-62
2022/10/05 12:24:12;;;;;;;4.57;3.10;;;19.70;76.60;;;;;;5118841;28;20426;-63
2022/10/05 12:26:47;;;;;;;3.37;3.07;;;19.90;76.20;;;;;;5126352;28;20418;-62
2022/10/05 12:29:21;;;;;;;3.10;2.80;;;20.10;75.30;;;;;;5121220;28;20424;-63
2022/10/05 12:31:56;;;;;;;4.87;3.00;;;20.10;73.90;;;;;;5123186;28;20465;-63
2022/10/05 12:34:33;;;;;;;5.07;3.00;;;20.00;73.60;;;;;;5122662;28;20430;-62
2022/10/05 12:37:06;;;;;;;4.90;3.27;;;20.00;73.80;;;;;;5122748;28;20436;-62
2022/10/05 12:39:44;;;;;;;6.13;3.27;;;20.00;73.90;;;;;;5119546;28;20426;-63
2022/10/05 12:42:20;;;;;;;4.70;2.97;;;20.00;73.80;;;;;;5119006;28;20835;-63
2022/10/05 12:45:21;;;;;;;3.40;3.10;;;20.00;73.80;;;;;;5119265;28;20429;-62
2022/10/05 12:48:09;;;;;;;2.80;2.60;;;19.90;73.70;;;;;;5106850;28;20823;-62
2022/10/05 12:50:40;;;;;;;3.57;3.20;;;20.00;73.50;;;;;;5118722;28;20425;-63
2022/10/05 12:53:24;;;;;;;3.90;2.60;;;20.00;73.20;;;;;;5117928;28;20497;-64
2022/10/05 12:56:01;;;;;;;3.43;3.13;;;19.90;73.50;;;;;;5118508;28;20512;-62
2022/10/05 12:58:42;;;;;;;3.30;3.00;;;19.90;73.80;;;;;;5118809;28;20445;-63
2022/10/05 13:01:24;;;;;;;4.17;3.10;;;19.90;73.60;;;;;;5118572;28;20425;-62
2022/10/05 13:03:58;;;;;;;4.17;2.80;;;19.80;73.60;;;;;;5118797;28;20465;-62
2022/10/05 13:06:35;;;;;;;6.70;3.30;;;19.80;73.80;;;;;;5119403;28;20433;-62
2022/10/05 13:11:36;;;;;;;6.53;2.33;;;19.70;73.60;;;;;;5155661;22;20477;-61
2022/10/05 13:14:17;;;;;;;2.97;2.77;;;19.60;73.60;;;;;;5137759;27;20420;-62
2022/10/05 13:16:51;;;;;;;6.13;2.27;;;19.50;73.70;;;;;;5137858;27;20424;-61
2022/10/05 13:19:30;;;;;;;3.40;2.57;;;19.40;73.80;;;;;;5137689;27;20467;-60
2022/10/05 13:22:17;;;;;;;3.03;2.10;;;19.40;74.00;;;;;;5137217;27;20417;-61
2022/10/05 13:24:54;;;;;;;2.10;1.90;;;19.20;74.00;;;;;;5137714;27;20421;-61
2022/10/05 13:27:26;;;;;;;3.30;2.07;;;19.10;74.90;;;;;;5137696;27;20431;-62
2022/10/05 13:30:01;;;;;;;3.20;1.67;;;19.00;74.50;;;;;;5138119;27;20840;-61
2022/10/05 13:32:35;;;;;;;4.07;1.90;;;19.00;74.60;;;;;;5137949;27;20496;-63
2022/10/05 13:35:16;;;;;;;2.30;2.10;;;19.00;74.50;;;;;;5137789;27;20433;-62
2022/10/05 13:37:55;;;;;;;2.77;2.30;;;19.00;74.40;;;;;;5137530;27;20416;-61
2022/10/05 13:40:31;;;;;;;2.13;1.87;;;19.00;74.40;;;;;;5138618;27;20471;-62
2022/10/05 13:43:03;;;;;;;3.80;2.40;;;19.00;74.30;;;;;;5140198;27;20472;-62
2022/10/05 13:45:38;;;;;;;1.80;1.60;;;19.00;74.30;;;;;;5142140;27;20429;-62
2022/10/05 13:48:20;;;;;;;2.10;1.77;;;19.00;74.30;;;;;;5142815;27;20429;-62
2022/10/05 13:50:59;;;;;;;2.20;2.00;;;19.00;74.30;;;;;;5141846;27;20464;-62
2022/10/05 13:53:31;;;;;;;3.30;2.23;;;19.10;74.40;;;;;;5138910;27;20494;-62
2022/10/05 13:56:00;;;;;;;1.97;1.73;;;19.10;74.50;;;;;;5140341;27;20433;-61